createdAt,value
2023-02-13T00:00:23.650Z,8.13
2023-02-13T00:02:51.173Z,8.60
2023-02-13T00:05:18.270Z,8.27
2023-02-13T00:07:45.522Z,8.38
2023-02-13T00:10:12.572Z,7.95
2023-02-13T00:12:39.959Z,8.70
2023-02-13T00:15:08.494Z,8.75
2023-02-13T00:17:36.157Z,8.40
2023-02-13T00:20:03.670Z,8.95
2023-02-13T00:22:30.653Z,8.52
2023-02-13T00:24:57.750Z,8.18
2023-02-13T00:27:24.676Z,9.15
2023-02-13T00:29:51.479Z,8.20
2023-02-13T00:32:18.479Z,8.80
2023-02-13T00:34:45.555Z,8.70
2023-02-13T00:37:12.534Z,8.82
2023-02-13T00:39:39.448Z,8.23
2023-02-13T00:42:06.524Z,9.20
2023-02-13T00:44:33.545Z,8.73
2023-02-13T00:47:00.442Z,8.80
2023-02-13T00:49:27.521Z,8.77
2023-02-13T00:51:54.360Z,9.23
2023-02-13T00:54:21.226Z,9.30
2023-02-13T00:56:48.308Z,9.40
2023-02-13T00:59:15.500Z,9.40
2023-02-13T01:01:42.419Z,9.43
2023-02-13T01:04:09.490Z,10.10
2023-02-13T01:06:36.450Z,9.90
2023-02-13T01:09:04.513Z,9.65
2023-02-13T01:11:31.344Z,9.60
2023-02-13T01:13:58.301Z,9.63
2023-02-13T01:16:25.267Z,10.25
2023-02-13T01:18:52.228Z,10.30
2023-02-13T01:21:21.558Z,10.10
2023-02-13T01:23:48.514Z,10.43
2023-02-13T01:26:23.883Z,10.20
2023-02-13T01:28:55.031Z,10.27
2023-02-13T01:31:22.692Z,10.73
2023-02-13T01:33:49.700Z,10.75
2023-02-13T01:36:16.803Z,10.25
2023-02-13T01:38:44.020Z,9.40
2023-02-13T01:41:11.582Z,9.77
2023-02-13T01:43:48.862Z,9.75
2023-02-13T01:46:21.045Z,9.50
2023-02-13T01:48:49.536Z,10.23
2023-02-13T01:51:30.993Z,9.13
2023-02-13T01:54:18.809Z,9.98
2023-02-13T01:56:53.352Z,9.50
2023-02-13T01:59:42.306Z,10.00
2023-02-13T02:02:09.506Z,9.88
2023-02-13T02:04:40.140Z,10.30
2023-02-13T02:07:11.435Z,10.23
2023-02-13T02:09:41.108Z,10.73
2023-02-13T02:12:46.746Z,10.90
2023-02-13T02:15:13.836Z,10.90
2023-02-13T02:17:40.735Z,10.50
2023-02-13T02:20:29.057Z,10.40
2023-02-13T02:23:32.694Z,10.80
2023-02-13T02:26:39.701Z,12.18
2023-02-13T02:45:09.650Z,12.07
2023-02-13T02:48:19.989Z,11.85
2023-02-13T02:50:51.881Z,12.32
2023-02-13T02:53:26.913Z,12.93
2023-02-13T02:56:24.086Z,11.40
2023-02-13T02:59:22.222Z,12.05
2023-02-13T03:02:09.094Z,12.30
2023-02-13T03:04:59.504Z,10.65
2023-02-13T03:07:27.307Z,11.02
2023-02-13T03:10:17.211Z,10.98
2023-02-13T03:13:21.832Z,11.68
2023-02-13T03:16:11.212Z,10.57
2023-02-13T03:19:03.855Z,11.95
2023-02-13T03:22:06.893Z,11.40
2023-02-13T03:24:42.453Z,11.23
2023-02-13T03:27:40.656Z,11.20
2023-02-13T03:30:15.998Z,11.77
2023-02-13T03:32:56.611Z,10.82
2023-02-13T03:36:08.234Z,11.55
2023-02-13T03:38:48.020Z,11.18
2023-02-13T03:41:22.022Z,11.15
2023-02-13T03:44:25.408Z,10.98
2023-02-13T03:46:55.714Z,11.90
2023-02-13T03:49:51.457Z,11.82
2023-02-13T03:52:21.096Z,12.98
2023-02-13T03:55:44.118Z,12.48
2023-02-13T03:58:45.449Z,11.88
2023-02-13T04:01:15.326Z,11.35
2023-02-13T04:04:05.321Z,11.00
2023-02-13T04:06:49.667Z,11.35
2023-02-13T04:09:17.341Z,10.95
2023-02-13T04:11:55.906Z,11.02
2023-02-13T04:14:34.228Z,10.23
2023-02-13T04:17:14.066Z,10.80
2023-02-13T04:19:41.702Z,11.40
2023-02-13T04:22:08.887Z,12.60
2023-02-13T04:24:36.656Z,11.32
2023-02-13T04:27:04.328Z,12.02
2023-02-13T04:29:31.454Z,11.98
2023-02-13T04:31:58.292Z,11.35
2023-02-13T04:34:25.484Z,10.15
2023-02-13T04:36:52.714Z,11.15
2023-02-13T04:39:19.609Z,11.82
2023-02-13T04:41:46.727Z,12.07
2023-02-13T04:44:13.720Z,12.43
2023-02-13T04:59:39.478Z,11.30
2023-02-13T05:02:06.968Z,11.15
2023-02-13T05:04:34.173Z,11.43
2023-02-13T05:07:02.148Z,11.75
2023-02-13T05:09:33.052Z,13.15
2023-02-13T05:12:00.142Z,13.55
2023-02-13T05:14:27.283Z,12.27
2023-02-13T05:16:54.694Z,12.50
2023-02-13T05:19:29.036Z,12.85
2023-02-13T05:22:14.798Z,13.23
2023-02-13T05:24:48.341Z,12.18
2023-02-13T05:27:15.547Z,12.55
2023-02-13T05:29:42.488Z,12.38
2023-02-13T05:32:09.819Z,13.15
2023-02-13T05:34:39.328Z,14.52
2023-02-13T05:37:07.727Z,16.30
2023-02-13T05:39:34.492Z,15.27
2023-02-13T05:42:01.915Z,15.90
2023-02-13T05:44:28.849Z,15.00
2023-02-13T05:46:55.772Z,15.88
2023-02-13T05:49:23.387Z,14.95
2023-02-13T05:51:52.485Z,14.90
2023-02-13T05:54:19.556Z,14.65
2023-02-13T05:56:46.989Z,16.33
2023-02-13T05:59:15.374Z,15.88
2023-02-13T06:01:42.488Z,16.13
2023-02-13T06:04:20.195Z,15.80
2023-02-13T06:06:47.168Z,15.50
2023-02-13T06:09:19.038Z,15.02
2023-02-13T06:11:46.226Z,15.52
2023-02-13T06:14:14.609Z,14.63
2023-02-13T06:16:42.256Z,16.17
2023-02-13T06:19:14.752Z,14.82
2023-02-13T06:21:41.670Z,14.25
2023-02-13T06:24:09.072Z,15.07
2023-02-13T06:26:36.095Z,14.20
2023-02-13T06:29:05.752Z,14.05
2023-02-13T06:31:35.386Z,13.95
2023-02-13T06:34:02.570Z,13.85
2023-02-13T06:36:29.587Z,14.45
2023-02-13T06:38:56.807Z,14.63
2023-02-13T06:41:24.566Z,14.02
2023-02-13T06:43:55.413Z,14.95
2023-02-13T06:46:23.223Z,13.05
2023-02-13T06:48:50.149Z,13.57
2023-02-13T06:51:17.113Z,13.82
2023-02-13T06:53:44.222Z,13.20
2023-02-13T06:56:16.975Z,14.48
2023-02-13T06:58:44.100Z,13.20
2023-02-13T07:01:11.272Z,14.15
2023-02-13T07:03:38.303Z,12.88
2023-02-13T07:06:11.352Z,14.02
2023-02-13T07:08:38.696Z,14.02
2023-02-13T07:11:05.671Z,14.27
2023-02-13T07:13:32.601Z,13.07
2023-02-13T07:16:01.682Z,14.07
2023-02-13T07:18:28.522Z,16.23
2023-02-13T07:20:58.017Z,15.25
2023-02-13T07:23:25.215Z,15.43
2023-02-13T07:25:52.310Z,16.05
2023-02-13T07:28:19.337Z,15.93
2023-02-13T07:30:46.333Z,16.65
2023-02-13T07:33:13.795Z,15.48
2023-02-13T07:35:45.982Z,17.38
2023-02-13T07:38:13.243Z,18.98
2023-02-13T07:40:40.644Z,19.13
2023-02-13T07:43:07.776Z,18.10
2023-02-13T07:45:34.723Z,18.52
2023-02-13T07:48:01.710Z,18.88
2023-02-13T07:50:31.502Z,19.17
2023-02-13T07:53:02.224Z,18.35
2023-02-13T07:55:30.190Z,18.00
2023-02-13T07:57:57.772Z,17.08
2023-02-13T08:00:25.962Z,18.25
2023-02-13T08:02:58.967Z,18.15
2023-02-13T08:05:26.207Z,16.90
2023-02-13T08:07:53.831Z,17.65
2023-02-13T08:10:51.143Z,17.75
2023-02-13T08:13:22.431Z,18.75
2023-02-13T08:15:49.308Z,17.50
2023-02-13T08:18:18.839Z,18.83
2023-02-13T08:20:50.947Z,17.60
2023-02-13T08:23:18.169Z,18.15
2023-02-13T08:25:45.073Z,19.13
2023-02-13T08:28:12.383Z,16.55
2023-02-13T08:30:40.251Z,18.08
2023-02-13T08:33:10.844Z,16.98
2023-02-13T08:35:37.925Z,17.77
2023-02-13T08:38:05.483Z,17.02
2023-02-13T08:40:32.956Z,18.02
2023-02-13T08:43:01.514Z,17.48
2023-02-13T09:01:38.708Z,15.45
2023-02-13T09:04:07.858Z,14.68
2023-02-13T09:06:34.761Z,14.73
2023-02-13T09:09:01.990Z,14.68
2023-02-13T09:11:29.519Z,13.52
2023-02-13T09:13:56.861Z,15.20
2023-02-13T09:19:38.783Z,14.25
2023-02-13T09:24:32.832Z,13.35
2023-02-13T09:27:00.100Z,13.75
2023-02-13T09:29:47.113Z,13.10
2023-02-13T09:32:19.603Z,14.18
2023-02-13T09:34:49.838Z,13.65
2023-02-13T09:37:16.829Z,13.00
2023-02-13T09:39:43.816Z,12.13
2023-02-13T09:42:25.255Z,13.30
2023-02-13T09:44:57.582Z,13.27
2023-02-13T09:47:37.189Z,12.05
2023-02-13T09:50:25.570Z,12.73
2023-02-13T09:52:55.546Z,13.07
2023-02-13T09:56:05.754Z,12.57
2023-02-13T09:58:38.573Z,12.32
2023-02-13T10:10:06.167Z,12.00
2023-02-13T10:13:03.896Z,12.25
2023-02-13T10:15:42.811Z,11.85
2023-02-13T10:18:16.384Z,12.23
2023-02-13T10:20:56.599Z,12.25
2023-02-13T10:23:40.715Z,12.85
2023-02-13T10:26:20.276Z,11.88
2023-02-13T10:29:23.580Z,12.43
2023-02-13T10:31:56.508Z,12.10
2023-02-13T10:34:28.707Z,11.55
2023-02-13T10:36:55.761Z,11.13
2023-02-13T10:39:29.701Z,11.77
2023-02-13T10:42:36.434Z,11.50
2023-02-13T10:45:23.648Z,10.98
2023-02-13T10:48:01.384Z,10.73
2023-02-13T10:50:44.762Z,10.68
2023-02-13T10:53:34.399Z,11.10
2023-02-13T10:56:21.244Z,10.27
2023-02-13T10:59:12.805Z,10.63
2023-02-13T11:01:56.508Z,10.63
2023-02-13T11:04:23.941Z,9.35
2023-02-13T11:07:00.724Z,9.38
2023-02-13T11:09:28.815Z,9.55
2023-02-13T11:11:55.911Z,9.93
2023-02-13T11:14:27.961Z,9.77
2023-02-13T11:17:07.372Z,9.43
2023-02-13T11:19:38.899Z,9.15
2023-02-13T11:22:15.172Z,8.90
2023-02-13T11:27:14.005Z,8.52
2023-02-13T11:30:02.341Z,8.93
2023-02-13T11:32:33.676Z,8.50
2023-02-13T11:35:49.722Z,8.73
2023-02-13T11:38:18.370Z,8.68
2023-02-13T11:41:08.684Z,8.57
2023-02-13T11:44:12.551Z,8.63
2023-02-13T11:46:58.292Z,8.20
2023-02-13T11:49:47.302Z,8.80
2023-02-13T11:52:34.171Z,8.13
2023-02-13T11:55:29.036Z,7.90
2023-02-13T11:58:18.137Z,8.13
2023-02-13T12:00:46.912Z,7.97
2023-02-13T12:03:31.891Z,7.88
2023-02-13T12:06:10.740Z,7.78
2023-02-13T12:08:39.183Z,7.50
2023-02-13T12:11:24.968Z,6.88
2023-02-13T12:13:53.026Z,6.90
2023-02-13T12:17:00.645Z,7.10
2023-02-13T12:19:44.688Z,6.57
2023-02-13T12:22:34.964Z,6.60
2023-02-13T12:25:32.265Z,6.80
2023-02-13T12:28:19.442Z,6.50
2023-02-13T12:31:05.862Z,6.68
2023-02-13T12:33:57.558Z,7.63
2023-02-13T12:36:55.123Z,7.57
2023-02-13T12:39:33.215Z,8.05
2023-02-13T12:42:26.821Z,8.32
2023-02-13T13:01:27.745Z,7.22
2023-02-13T13:08:08.310Z,7.78
2023-02-13T13:10:41.033Z,7.50
2023-02-13T13:13:17.437Z,7.70
2023-02-13T13:16:06.295Z,7.47
2023-02-13T13:18:36.264Z,7.25
2023-02-13T13:21:08.997Z,7.30
2023-02-13T13:24:14.629Z,7.28
2023-02-13T13:26:50.625Z,6.93
2023-02-13T13:29:22.574Z,7.70
2023-02-13T13:31:59.866Z,7.60
2023-02-13T13:34:30.498Z,7.28
2023-02-13T13:37:18.323Z,7.78
2023-02-13T13:40:07.561Z,7.60
2023-02-13T13:43:14.536Z,7.50
2023-02-13T13:46:03.961Z,7.05
2023-02-13T13:48:55.491Z,7.07
2023-02-13T13:51:22.822Z,7.28
2023-02-13T13:54:15.622Z,6.72
2023-02-13T13:57:12.806Z,7.40
2023-02-13T13:59:39.705Z,7.22
2023-02-13T14:02:19.073Z,7.20
2023-02-13T14:05:07.912Z,6.85
2023-02-13T14:07:38.878Z,6.60
2023-02-13T14:10:07.834Z,6.65
2023-02-13T14:12:38.246Z,6.55
2023-02-13T14:15:05.476Z,6.65
2023-02-13T14:17:44.627Z,6.53
2023-02-13T14:20:40.123Z,6.53
2023-02-13T14:23:25.664Z,5.75
2023-02-13T14:26:19.099Z,5.80
2023-02-13T14:28:50.086Z,5.30
2023-02-13T14:31:40.484Z,5.70
2023-02-13T14:34:08.920Z,5.50
2023-02-13T14:36:42.328Z,5.28
2023-02-13T14:39:36.180Z,5.43
2023-02-13T14:42:25.386Z,4.90
2023-02-13T14:45:00.193Z,5.15
2023-02-13T14:47:30.419Z,5.22
2023-02-13T14:49:59.645Z,4.97
2023-02-13T14:52:32.959Z,5.13
2023-02-13T14:55:04.957Z,4.85
2023-02-13T14:57:53.744Z,4.60
2023-02-13T15:00:26.405Z,4.40
2023-02-13T15:02:58.744Z,4.40
2023-02-13T15:05:33.660Z,4.70
2023-02-13T15:08:15.399Z,4.60
2023-02-13T15:10:56.617Z,4.40
2023-02-13T15:13:35.976Z,4.50
2023-02-13T15:16:13.410Z,4.50
2023-02-13T15:18:48.351Z,4.45
2023-02-13T15:21:18.723Z,4.10
2023-02-13T15:23:53.298Z,3.83
2023-02-13T15:26:27.884Z,3.65
2023-02-13T15:29:17.361Z,3.60
2023-02-13T15:31:51.661Z,3.33
2023-02-13T15:34:28.671Z,3.20
2023-02-13T15:36:56.830Z,2.90
2023-02-13T15:39:27.146Z,3.08
2023-02-13T15:41:59.283Z,3.08
2023-02-13T15:44:37.358Z,3.05
2023-02-13T15:47:08.608Z,2.75
2023-02-13T15:49:42.923Z,2.90
2023-02-13T15:52:19.500Z,2.60
2023-02-13T15:54:52.612Z,2.80
2023-02-13T15:57:20.974Z,2.67
2023-02-13T15:59:48.454Z,3.33
2023-02-13T16:02:33.932Z,2.60
2023-02-13T16:05:02.309Z,2.80
2023-02-13T16:07:30.633Z,2.88
2023-02-13T16:10:24.414Z,2.70
2023-02-13T16:12:51.296Z,2.60
2023-02-13T16:15:21.662Z,2.90
2023-02-13T16:17:49.235Z,2.42
2023-02-13T16:20:22.483Z,2.80
2023-02-13T16:22:51.600Z,2.95
2023-02-13T16:25:22.401Z,3.08
2023-02-13T16:27:52.061Z,3.17
2023-02-13T16:30:33.789Z,3.08
2023-02-13T16:33:15.818Z,3.20
2023-02-13T16:35:45.289Z,3.25
2023-02-13T16:38:33.709Z,3.38
2023-02-13T16:41:06.005Z,3.58
2023-02-13T16:43:54.471Z,3.40
2023-02-13T16:46:42.103Z,4.25
2023-02-13T16:49:09.497Z,3.88
2023-02-13T16:51:47.464Z,3.13
2023-02-13T16:54:38.224Z,3.22
2023-02-13T16:57:18.185Z,3.55
2023-02-13T16:59:48.100Z,3.58
2023-02-13T17:02:34.573Z,3.88
2023-02-13T17:05:10.595Z,3.53
2023-02-13T17:07:48.218Z,4.10
2023-02-13T17:10:35.778Z,3.95
2023-02-13T17:13:12.591Z,3.65
2023-02-13T17:15:44.197Z,3.85
2023-02-13T17:18:11.155Z,4.25
2023-02-13T17:20:41.594Z,4.20
2023-02-13T17:23:17.603Z,3.63
2023-02-13T17:25:46.318Z,3.65
2023-02-13T17:28:17.246Z,4.38
2023-02-13T17:30:45.526Z,3.50
2023-02-13T17:33:22.821Z,3.50
2023-02-13T17:35:50.320Z,3.30
2023-02-13T17:38:17.731Z,3.30
2023-02-13T17:40:45.500Z,3.38
2023-02-13T17:43:14.820Z,3.20
2023-02-13T17:45:42.949Z,3.40
2023-02-13T17:48:09.906Z,3.50
2023-02-13T17:50:37.138Z,4.13
2023-02-13T17:53:07.247Z,4.03
2023-02-13T17:55:35.302Z,4.22
2023-02-13T17:58:02.289Z,6.45
2023-02-13T18:00:31.906Z,6.82
2023-02-13T18:03:00.547Z,6.05
2023-02-13T18:05:28.321Z,5.25
2023-02-13T18:07:55.716Z,4.30
2023-02-13T18:10:24.421Z,8.60
2023-02-13T18:12:52.955Z,5.30
2023-02-13T18:15:20.092Z,4.63
2023-02-13T18:17:47.342Z,4.30
2023-02-13T18:20:20.752Z,4.10
2023-02-13T18:22:50.736Z,4.47
2023-02-13T18:25:19.268Z,4.60
2023-02-13T18:27:46.554Z,5.00
2023-02-13T18:30:16.016Z,4.85
2023-02-13T18:32:42.900Z,4.93
2023-02-13T18:35:09.880Z,4.97
2023-02-13T18:37:39.155Z,5.47
2023-02-13T18:40:08.340Z,5.25
2023-02-13T18:42:36.067Z,5.15
2023-02-13T18:45:04.024Z,6.45
2023-02-13T18:47:31.240Z,5.80
2023-02-13T18:49:58.095Z,6.47
2023-02-13T18:52:25.007Z,5.93
2023-02-13T18:54:51.804Z,6.00
2023-02-13T18:57:18.645Z,5.75
2023-02-13T18:59:45.499Z,5.40
2023-02-13T19:02:12.601Z,5.05
2023-02-13T19:04:39.584Z,5.50
2023-02-13T19:07:06.441Z,6.18
2023-02-13T19:09:35.456Z,5.65
2023-02-13T19:12:02.239Z,6.68
2023-02-13T19:14:29.168Z,5.80
2023-02-13T19:16:55.943Z,6.80
2023-02-13T19:19:22.799Z,5.65
2023-02-13T19:21:49.684Z,6.43
2023-02-13T19:24:16.694Z,6.53
2023-02-13T19:26:43.661Z,7.63
2023-02-13T19:29:10.647Z,6.40
2023-02-13T19:31:37.563Z,6.38
2023-02-13T19:34:05.840Z,6.55
2023-02-13T19:36:33.044Z,6.47
2023-02-13T19:39:03.435Z,5.97
2023-02-13T19:41:30.925Z,6.45
2023-02-13T19:43:58.578Z,6.15
2023-02-13T19:46:31.090Z,6.07
2023-02-13T19:48:58.496Z,7.35
2023-02-13T19:51:28.838Z,7.50
2023-02-13T19:54:02.368Z,7.25
2023-02-13T19:56:31.416Z,6.85
2023-02-13T19:58:58.755Z,6.70
2023-02-13T20:01:27.961Z,6.68
2023-02-13T20:03:55.880Z,6.80
2023-02-13T20:06:26.082Z,6.65
2023-02-13T20:08:53.545Z,6.22
2023-02-13T20:11:22.623Z,6.57
2023-02-13T20:13:55.864Z,6.00
2023-02-13T20:16:23.270Z,6.72
2023-02-13T20:18:50.565Z,6.53
2023-02-13T20:21:18.667Z,6.35
2023-02-13T20:23:49.958Z,6.47
2023-02-13T20:26:17.368Z,6.18
2023-02-13T20:28:46.207Z,6.55
2023-02-13T20:31:16.260Z,6.90
2023-02-13T20:33:44.460Z,6.63
2023-02-13T20:36:19.448Z,7.30
2023-02-13T20:38:47.115Z,7.32
2023-02-13T20:41:15.219Z,7.47
2023-02-13T20:43:42.834Z,7.97
2023-02-13T20:46:10.165Z,8.18
2023-02-13T20:48:39.573Z,8.15
2023-02-13T20:51:09.608Z,7.90
2023-02-13T20:53:36.598Z,7.80
2023-02-13T20:56:24.922Z,8.02
2023-02-13T20:58:53.523Z,7.18
2023-02-13T21:01:31.397Z,7.20
2023-02-13T21:03:58.550Z,7.82
2023-02-13T21:06:31.955Z,7.85
2023-02-13T21:08:59.340Z,8.27
2023-02-13T21:11:28.302Z,8.93
2023-02-13T21:13:56.883Z,7.88
2023-02-13T21:16:27.029Z,8.32
2023-02-13T21:18:59.578Z,8.95
2023-02-13T21:21:29.432Z,8.40
2023-02-13T21:23:57.980Z,8.10
2023-02-13T21:26:25.762Z,7.78
2023-02-13T21:28:53.075Z,7.97
2023-02-13T21:31:29.963Z,8.18
2023-02-13T21:34:04.873Z,8.73
2023-02-13T21:36:32.846Z,8.13
2023-02-13T21:39:00.839Z,8.38
2023-02-13T21:41:27.892Z,7.90
2023-02-13T21:43:55.236Z,8.05
2023-02-13T21:46:25.527Z,7.68
2023-02-13T21:48:54.702Z,8.90
2023-02-13T21:51:22.971Z,8.23
2023-02-13T21:53:50.415Z,8.57
2023-02-13T21:56:28.578Z,8.40
2023-02-13T21:58:56.711Z,9.07
2023-02-13T22:01:27.226Z,9.40
2023-02-13T22:04:01.139Z,9.35
2023-02-13T22:06:30.407Z,8.77
2023-02-13T22:09:11.346Z,8.90
2023-02-13T22:11:39.123Z,9.23
2023-02-13T22:14:08.607Z,10.27
2023-02-13T22:16:37.865Z,9.63
2023-02-13T22:19:06.419Z,9.48
2023-02-13T22:21:35.378Z,9.85
2023-02-13T22:24:02.756Z,9.48
2023-02-13T22:26:34.187Z,9.23
2023-02-13T22:29:04.297Z,10.63
2023-02-13T22:31:31.705Z,9.73
2023-02-13T22:34:03.759Z,9.88
2023-02-13T22:36:32.699Z,9.65
2023-02-13T22:38:59.549Z,10.20
2023-02-13T22:41:27.371Z,9.85
2023-02-13T22:43:54.693Z,10.10
2023-02-13T22:46:24.529Z,10.13
2023-02-13T22:48:52.550Z,10.40
2023-02-13T22:51:25.396Z,10.00
2023-02-13T22:53:57.021Z,10.75
2023-02-13T22:56:25.127Z,10.60
2023-02-13T22:58:52.053Z,11.48
2023-02-13T23:01:21.207Z,10.93
2023-02-13T23:03:48.350Z,11.07
2023-02-13T23:06:16.527Z,10.88
2023-02-13T23:08:43.852Z,11.20
2023-02-13T23:11:34.955Z,11.15
2023-02-13T23:14:02.074Z,10.98
2023-02-13T23:16:49.822Z,11.48
2023-02-13T23:19:16.986Z,10.93
2023-02-13T23:21:44.180Z,11.52
2023-02-13T23:24:11.662Z,11.40
2023-02-13T23:26:38.728Z,11.15
2023-02-13T23:29:05.619Z,10.88
2023-02-13T23:31:32.644Z,12.02
2023-02-13T23:33:59.714Z,11.45
2023-02-13T23:36:26.625Z,11.65
2023-02-13T23:38:53.495Z,11.80
2023-02-13T23:41:20.535Z,11.75
2023-02-13T23:43:47.434Z,11.63
2023-02-13T23:46:14.422Z,11.88
2023-02-13T23:48:41.402Z,11.68
2023-02-13T23:51:08.273Z,10.85
2023-02-13T23:53:36.092Z,10.40
2023-02-13T23:56:04.092Z,10.82
2023-02-13T23:58:31.029Z,11.40
